Time;durP1;ratioP1;P1;durP2;ratioP2;P2;SDS_P1;SDS_P2;PMS_P1;PMS_P2;Temp;Humidity;BMP_temperature;BMP_pressure;BME280_temperature;BME280_humidity;BME280_pressure;Samples;Min_cycle;Max_cycle;Signal;HPM_P1;HPM_P2
2022/05/22 00:01:35;;;;;;;22.17;13.77;;;11.60;99.90;;;;;;6230690;22;20016;-55
2022/05/22 00:04:01;;;;;;;22.52;13.57;;;11.60;99.90;;;;;;6233065;22;20732;-54
2022/05/22 00:06:26;;;;;;;21.70;12.63;;;11.70;99.90;;;;;;6231010;22;20008;-54
2022/05/22 00:08:52;;;;;;;22.33;12.38;;;11.80;99.90;;;;;;6231975;22;20012;-54
2022/05/22 00:11:17;;;;;;;17.40;11.45;;;11.80;99.90;;;;;;6224790;22;21796;-57
2022/05/22 00:13:43;;;;;;;17.42;12.00;;;11.70;99.90;;;;;;6226922;23;20251;-54
2022/05/22 00:18:52;;;;;;;17.30;10.85;;;11.70;99.90;;;;;;6227031;23;20054;-54
2022/05/22 00:21:18;;;;;;;18.73;11.40;;;11.60;99.90;;;;;;6227379;22;20008;-55
2022/05/22 00:23:43;;;;;;;17.02;10.60;;;11.50;99.90;;;;;;6225547;22;20004;-55
2022/05/22 00:26:09;;;;;;;20.58;10.38;;;11.40;99.90;;;;;;6222744;22;20212;-56
2022/05/22 00:28:35;;;;;;;17.80;10.57;;;11.30;99.90;;;;;;6160057;22;20547;-55
2022/05/22 00:31:00;;;;;;;23.20;10.48;;;11.30;99.90;;;;;;6223455;22;20015;-56
2022/05/22 00:33:29;;;;;;;18.60;9.07;;;11.30;99.90;;;;;;6227206;22;20083;-56
2022/05/22 00:35:54;;;;;;;17.40;9.32;;;11.30;99.90;;;;;;6220767;22;20019;-56
2022/05/22 00:38:20;;;;;;;21.37;9.90;;;11.30;99.90;;;;;;6223444;22;20012;-58
2022/05/22 00:40:45;;;;;;;20.67;10.32;;;11.30;99.90;;;;;;6226556;22;20019;-58
2022/05/22 00:43:25;;;;;;;20.27;9.98;;;11.40;99.90;;;;;;6216074;22;20038;-58
2022/05/22 00:45:50;;;;;;;17.05;9.40;;;11.20;99.90;;;;;;6220923;22;20011;-59
2022/05/22 00:48:16;;;;;;;22.02;11.35;;;11.10;99.90;;;;;;6223224;22;20035;-58
2022/05/22 00:50:42;;;;;;;19.88;10.80;;;11.10;99.90;;;;;;6221918;22;20007;-57
2022/05/22 00:53:07;;;;;;;20.42;10.82;;;11.10;99.90;;;;;;6223850;22;20393;-60
2022/05/22 00:55:33;;;;;;;19.65;12.35;;;11.00;99.90;;;;;;6223028;23;20000;-58
2022/05/22 00:58:00;;;;;;;21.85;11.65;;;11.00;99.90;;;;;;6222942;23;20004;-58
2022/05/22 01:00:28;;;;;;;25.40;12.27;;;11.10;99.90;;;;;;6223963;22;20682;-57
2022/05/22 01:05:39;;;;;;;18.85;11.60;;;11.00;99.90;;;;;;6216807;23;20384;-57
2022/05/22 01:08:05;;;;;;;21.73;12.15;;;10.90;99.90;;;;;;6222659;23;20008;-58
2022/05/22 01:11:04;;;;;;;24.13;12.10;;;11.80;99.90;;;;;;6223663;22;20013;-57
2022/05/22 01:13:34;;;;;;;27.10;12.80;;;11.10;99.90;;;;;;6221616;23;20095;-58
2022/05/22 01:15:59;;;;;;;24.27;11.80;;;11.10;99.90;;;;;;6224132;23;20039;-57
2022/05/22 01:18:28;;;;;;;23.48;12.10;;;11.00;99.90;;;;;;6225434;23;20043;-57
2022/05/22 01:20:54;;;;;;;25.20;11.63;;;11.00;99.90;;;;;;6225403;22;20008;-58
2022/05/22 01:23:19;;;;;;;18.42;10.68;;;11.00;99.90;;;;;;6227685;22;20463;-58
2022/05/22 01:25:45;;;;;;;18.70;10.38;;;11.00;99.90;;;;;;6225095;22;20487;-58
2022/05/22 01:28:11;;;;;;;18.65;10.50;;;11.20;99.90;;;;;;6157332;22;20515;-57
2022/05/22 01:30:36;;;;;;;28.70;11.55;;;11.20;99.90;;;;;;6219629;23;20008;-58
2022/05/22 01:33:02;;;;;;;23.05;11.65;;;11.10;99.90;;;;;;6226691;22;20004;-58
2022/05/22 01:35:28;;;;;;;18.80;9.52;;;11.10;99.90;;;;;;6222984;22;20405;-58
2022/05/22 01:37:54;;;;;;;24.65;10.02;;;11.00;99.90;;;;;;6227484;22;20058;-58
2022/05/22 01:40:20;;;;;;;23.70;10.48;;;11.00;99.90;;;;;;6220476;22;20008;-57
2022/05/22 01:42:46;;;;;;;22.17;11.10;;;11.00;99.90;;;;;;6223320;22;20334;-57
2022/05/22 01:45:13;;;;;;;19.83;10.27;;;11.00;99.90;;;;;;6220797;22;20005;-57
2022/05/22 01:47:38;;;;;;;20.85;10.23;;;11.10;99.90;;;;;;6224278;22;20092;-57
2022/05/22 01:50:04;;;;;;;15.00;8.98;;;11.10;99.90;;;;;;6220755;22;20087;-57
2022/05/22 01:52:30;;;;;;;17.90;9.90;;;11.10;99.90;;;;;;6196327;23;20364;-57
2022/05/22 01:54:55;;;;;;;18.67;9.93;;;11.10;99.90;;;;;;6221618;22;20008;-57
2022/05/22 01:57:21;;;;;;;18.38;9.35;;;11.10;99.90;;;;;;6224194;22;20012;-57
2022/05/22 01:59:46;;;;;;;15.95;9.73;;;11.10;99.90;;;;;;6225241;22;20364;-57
2022/05/22 02:02:12;;;;;;;19.52;9.68;;;11.20;99.90;;;;;;6221022;22;20047;-57
2022/05/22 02:04:37;;;;;;;17.40;9.07;;;11.20;99.90;;;;;;6222673;22;20396;-57
2022/05/22 02:09:47;;;;;;;15.82;8.77;;;11.10;99.90;;;;;;6224396;23;20061;-57
2022/05/22 02:12:13;;;;;;;15.90;8.40;;;11.10;99.90;;;;;;6226751;22;20094;-57
2022/05/22 02:14:39;;;;;;;19.13;9.70;;;10.90;99.90;;;;;;6225715;22;20018;-57
2022/05/22 02:17:04;;;;;;;15.57;9.63;;;10.80;99.90;;;;;;6227418;22;20488;-57
2022/05/22 02:19:30;;;;;;;20.33;9.55;;;10.80;99.90;;;;;;6225372;22;20015;-57
2022/05/22 02:21:55;;;;;;;20.05;10.02;;;10.90;99.90;;;;;;6226210;22;20000;-57
2022/05/22 02:24:21;;;;;;;18.77;9.75;;;10.90;99.90;;;;;;6224732;22;20000;-57
2022/05/22 02:26:46;;;;;;;16.95;8.73;;;11.00;99.90;;;;;;6190708;22;20008;-57
2022/05/22 02:29:12;;;;;;;27.40;9.55;;;11.00;99.90;;;;;;6224152;22;20000;-57
2022/05/22 02:31:37;;;;;;;20.73;9.07;;;10.90;99.90;;;;;;6228637;22;20007;-57
2022/05/22 02:34:03;;;;;;;21.33;10.80;;;10.80;99.90;;;;;;6231323;22;20004;-57
2022/05/22 02:36:28;;;;;;;14.27;9.55;;;10.80;99.90;;;;;;6228552;22;20008;-58
2022/05/22 02:38:54;;;;;;;20.60;9.95;;;10.70;99.90;;;;;;6226208;22;20658;-57
2022/05/22 02:41:20;;;;;;;20.15;10.32;;;10.80;99.90;;;;;;6224749;22;20008;-58
2022/05/22 02:43:46;;;;;;;14.68;9.40;;;10.70;99.90;;;;;;6224891;22;20440;-57
2022/05/22 02:46:12;;;;;;;18.60;10.48;;;10.70;99.90;;;;;;6227013;22;20039;-57
2022/05/22 02:48:38;;;;;;;23.85;10.70;;;10.60;99.90;;;;;;6225318;22;20012;-57
2022/05/22 02:51:03;;;;;;;18.55;10.35;;;10.60;99.90;;;;;;6226261;22;20000;-57
2022/05/22 02:53:29;;;;;;;15.10;9.85;;;10.50;99.90;;;;;;6221697;22;20075;-57
2022/05/22 02:55:55;;;;;;;20.30;10.32;;;10.50;99.90;;;;;;6225768;22;20011;-56
2022/05/22 02:58:20;;;;;;;22.13;10.43;;;10.30;99.90;;;;;;6222755;23;20054;-56
2022/05/22 03:00:46;;;;;;;17.23;10.88;;;10.30;99.90;;;;;;6225291;22;20012;-56
2022/05/22 03:03:11;;;;;;;22.40;11.38;;;10.30;99.90;;;;;;6223852;22;20141;-57
2022/05/22 03:08:21;;;;;;;28.92;10.88;;;10.30;99.90;;;;;;6226766;23;20019;-56
2022/05/22 03:10:46;;;;;;;16.52;10.80;;;10.20;99.90;;;;;;6223943;22;20099;-56
2022/05/22 03:13:13;;;;;;;22.83;11.15;;;10.10;99.90;;;;;;6226730;22;20046;-56
2022/05/22 03:15:38;;;;;;;17.67;10.93;;;10.10;99.90;;;;;;6221057;22;20441;-59
2022/05/22 03:18:04;;;;;;;20.98;11.07;;;10.10;99.90;;;;;;6225934;22;20027;-56
2022/05/22 03:20:30;;;;;;;21.80;12.05;;;10.10;99.90;;;;;;6221199;22;20091;-56
2022/05/22 03:22:57;;;;;;;27.48;12.57;;;10.20;99.90;;;;;;6226508;22;20058;-57
2022/05/22 03:25:23;;;;;;;22.55;13.35;;;10.30;99.90;;;;;;6223708;22;20011;-57
2022/05/22 03:27:48;;;;;;;22.20;12.05;;;10.40;99.90;;;;;;6154990;22;20376;-57
2022/05/22 03:30:14;;;;;;;21.52;12.95;;;10.30;99.90;;;;;;6217830;22;20111;-56
2022/05/22 03:32:39;;;;;;;23.90;12.48;;;10.30;99.90;;;;;;6229595;22;20007;-56
2022/05/22 03:35:05;;;;;;;24.80;12.57;;;10.30;99.90;;;;;;6227571;22;20031;-57
2022/05/22 03:37:31;;;;;;;19.48;12.68;;;10.20;99.90;;;;;;6230552;22;20039;-56
2022/05/22 03:39:56;;;;;;;20.73;11.82;;;10.20;99.90;;;;;;6226976;22;20277;-57
2022/05/22 03:42:24;;;;;;;28.83;11.32;;;10.30;99.90;;;;;;6227261;23;20808;-57
2022/05/22 03:44:49;;;;;;;26.05;11.20;;;10.20;99.90;;;;;;6226410;22;20004;-57
2022/05/22 03:47:15;;;;;;;18.02;11.70;;;10.20;99.90;;;;;;6226397;22;20437;-56
2022/05/22 03:49:41;;;;;;;22.20;11.40;;;10.20;99.90;;;;;;6227630;22;20019;-56
2022/05/22 03:52:06;;;;;;;21.25;10.82;;;10.20;99.90;;;;;;6223803;23;20000;-57
2022/05/22 03:54:32;;;;;;;22.85;11.55;;;10.40;99.90;;;;;;6226115;22;20082;-56
2022/05/22 03:56:57;;;;;;;22.60;11.70;;;10.50;99.90;;;;;;6224705;22;20008;-56
2022/05/22 03:59:24;;;;;;;22.40;11.15;;;10.50;99.90;;;;;;6226111;22;20008;-56
2022/05/22 04:01:50;;;;;;;21.25;11.75;;;10.40;99.90;;;;;;6180715;22;1023160;-56
2022/05/22 04:04:16;;;;;;;17.48;10.50;;;10.40;99.90;;;;;;6226619;22;20008;-57
2022/05/22 04:06:41;;;;;;;31.40;11.20;;;10.50;99.90;;;;;;6227764;22;20004;-59
2022/05/22 04:09:08;;;;;;;15.20;10.13;;;10.50;99.90;;;;;;6228255;22;20066;-57
2022/05/22 04:11:34;;;;;;;15.45;10.07;;;10.50;99.90;;;;;;6226511;22;20012;-57
2022/05/22 04:13:59;;;;;;;19.20;10.23;;;10.40;99.90;;;;;;6229290;22;20019;-57
2022/05/22 04:16:25;;;;;;;19.38;10.48;;;10.40;99.90;;;;;;6228516;22;20040;-57
2022/05/22 04:18:50;;;;;;;19.67;10.60;;;10.40;99.90;;;;;;6231695;22;20023;-58
2022/05/22 04:21:16;;;;;;;15.50;8.98;;;10.50;99.90;;;;;;6228569;22;20444;-57
2022/05/22 04:26:30;;;;;;;22.42;10.30;;;10.60;99.90;;;;;;6140479;23;20015;-61
2022/05/22 04:28:55;;;;;;;17.30;9.25;;;10.70;99.90;;;;;;6232452;22;20705;-57
2022/05/22 04:31:21;;;;;;;19.00;9.30;;;10.70;99.90;;;;;;6227665;22;20020;-57
2022/05/22 04:33:46;;;;;;;15.93;9.75;;;10.80;99.90;;;;;;6229741;22;20059;-57
2022/05/22 04:36:12;;;;;;;15.02;9.65;;;11.00;99.90;;;;;;6229913;22;20073;-57
2022/05/22 04:38:38;;;;;;;20.80;9.27;;;11.10;99.90;;;;;;6232401;22;20083;-56
2022/05/22 04:41:03;;;;;;;16.73;9.40;;;11.20;99.90;;;;;;6227383;22;20012;-56
2022/05/22 04:43:29;;;;;;;16.92;9.10;;;11.40;99.90;;;;;;6231821;22;19996;-56
2022/05/22 04:45:55;;;;;;;21.55;9.88;;;11.60;99.90;;;;;;6230802;22;20437;-56
2022/05/22 04:48:21;;;;;;;14.77;8.18;;;11.90;99.90;;;;;;6232362;22;20004;-56
2022/05/22 04:50:47;;;;;;;11.55;7.93;;;12.20;99.90;;;;;;6230560;22;20007;-57
2022/05/22 04:53:13;;;;;;;12.38;7.53;;;12.50;99.90;;;;;;6233182;22;20369;-57
2022/05/22 04:55:39;;;;;;;11.88;7.43;;;12.70;99.90;;;;;;6230285;22;20012;-56
2022/05/22 04:58:04;;;;;;;13.68;7.47;;;12.90;99.90;;;;;;6230337;22;20004;-57
2022/05/22 05:00:30;;;;;;;14.18;8.07;;;12.90;99.90;;;;;;6229770;22;20038;-56
2022/05/22 05:02:55;;;;;;;15.52;8.02;;;13.00;99.90;;;;;;6230611;22;20408;-57
2022/05/22 05:05:21;;;;;;;15.82;8.07;;;13.10;99.90;;;;;;6229022;22;20095;-57
2022/05/22 05:07:46;;;;;;;13.02;8.18;;;13.20;99.90;;;;;;6232374;22;20437;-57
2022/05/22 05:10:12;;;;;;;11.63;7.70;;;13.30;99.90;;;;;;6228421;22;20058;-57
2022/05/22 05:12:38;;;;;;;13.77;8.43;;;13.50;99.90;;;;;;6230884;22;20004;-57
2022/05/22 05:15:05;;;;;;;15.43;7.97;;;13.50;99.90;;;;;;6229840;22;20008;-57
2022/05/22 05:17:30;;;;;;;17.08;9.43;;;13.60;99.90;;;;;;6233003;22;20008;-57
2022/05/22 05:19:56;;;;;;;12.82;7.38;;;14.10;99.90;;;;;;6228907;22;20000;-57
2022/05/22 05:22:21;;;;;;;13.80;7.18;;;14.00;99.90;;;;;;6232658;22;20381;-57
2022/05/22 05:24:47;;;;;;;16.88;7.75;;;14.20;99.90;;;;;;6228359;22;20015;-57
2022/05/22 05:27:13;;;;;;;11.20;6.88;;;15.30;99.90;;;;;;6137563;22;20296;-56
2022/05/22 05:29:38;;;;;;;12.00;6.70;;;15.60;99.90;;;;;;6230031;22;20083;-57
2022/05/22 05:32:04;;;;;;;14.35;7.47;;;15.90;99.90;;;;;;6229275;22;20004;-57
2022/05/22 05:34:29;;;;;;;13.63;6.97;;;16.10;99.90;;;;;;6227240;22;20008;-57
2022/05/22 05:36:55;;;;;;;12.90;7.53;;;16.30;99.80;;;;;;6229538;22;20004;-57
2022/05/22 05:39:21;;;;;;;13.95;6.95;;;17.00;98.40;;;;;;6230179;22;20012;-58
2022/05/22 05:41:46;;;;;;;13.60;6.43;;;17.30;97.50;;;;;;6230815;22;20004;-57
2022/05/22 05:44:12;;;;;;;14.68;6.90;;;17.60;96.10;;;;;;6234356;22;19996;-56
2022/05/22 05:46:38;;;;;;;14.10;6.80;;;17.70;96.80;;;;;;6228835;23;20008;-57
2022/05/22 05:49:07;;;;;;;13.32;6.80;;;18.30;95.90;;;;;;6231037;22;20008;-57
2022/05/22 05:51:32;;;;;;;10.48;6.90;;;18.70;94.30;;;;;;6230814;22;20019;-57
2022/05/22 05:53:58;;;;;;;17.15;8.05;;;19.30;92.80;;;;;;6233946;22;20012;-57
2022/05/22 05:56:24;;;;;;;14.00;7.75;;;18.80;93.00;;;;;;6230874;22;20018;-57
2022/05/22 05:58:49;;;;;;;16.98;7.57;;;18.80;93.70;;;;;;6231991;22;20495;-59
2022/05/22 06:01:16;;;;;;;11.15;6.65;;;19.00;93.40;;;;;;6219175;22;20000;-58
2022/05/22 06:03:42;;;;;;;13.68;7.18;;;19.80;92.20;;;;;;6223450;22;20004;-57
2022/05/22 06:06:08;;;;;;;10.18;7.10;;;20.80;88.90;;;;;;6231801;22;19997;-57
2022/05/22 06:08:34;;;;;;;12.18;7.20;;;21.10;87.60;;;;;;6231010;23;20050;-57
2022/05/22 06:10:59;;;;;;;12.70;6.95;;;20.70;89.30;;;;;;6230310;22;20008;-57
2022/05/22 06:13:25;;;;;;;12.40;7.35;;;20.50;89.10;;;;;;6233395;22;20342;-57
2022/05/22 06:15:51;;;;;;;13.73;7.30;;;21.50;83.60;;;;;;6231288;22;20008;-58
2022/05/22 06:18:16;;;;;;;12.05;7.57;;;22.10;78.50;;;;;;6232145;22;20020;-58
2022/05/22 06:20:42;;;;;;;13.60;7.38;;;21.80;80.80;;;;;;6232970;22;20387;-60
2022/05/22 06:23:08;;;;;;;13.18;7.40;;;21.60;81.30;;;;;;6232571;22;20000;-59
2022/05/22 06:25:34;;;;;;;9.68;6.60;;;21.20;83.10;;;;;;6230174;22;20085;-58
2022/05/22 06:28:01;;;;;;;12.60;7.72;;;22.80;80.30;;;;;;6232863;22;20125;-57
2022/05/22 06:30:26;;;;;;;12.60;7.43;;;21.40;80.90;;;;;;6231353;22;20349;-58
2022/05/22 06:32:52;;;;;;;10.68;6.47;;;23.60;73.20;;;;;;6232931;22;20015;-59
2022/05/22 06:35:18;;;;;;;12.02;6.85;;;23.00;75.60;;;;;;6229838;22;20008;-58
2022/05/22 06:37:44;;;;;;;9.93;6.57;;;25.00;65.00;;;;;;6232511;23;20496;-58
2022/05/22 06:40:09;;;;;;;13.32;7.05;;;25.70;58.20;;;;;;6227010;22;20008;-57
2022/05/22 06:42:40;;;;;;;12.65;7.75;;;25.30;60.70;;;;;;6233940;22;20012;-58
2022/05/22 06:45:06;;;;;;;13.18;7.75;;;24.60;62.80;;;;;;6231098;22;20004;-58
2022/05/22 06:47:31;;;;;;;13.68;7.68;;;24.10;62.70;;;;;;6234776;23;20566;-58
2022/05/22 06:50:03;;;;;;;13.82;7.78;;;23.80;62.80;;;;;;6231991;22;20011;-57
2022/05/22 06:52:29;;;;;;;13.15;7.53;;;24.80;60.20;;;;;;6228903;22;20004;-58
2022/05/22 06:54:55;;;;;;;14.23;8.20;;;23.30;68.30;;;;;;6233601;22;20066;-58
2022/05/22 06:57:21;;;;;;;14.48;8.25;;;24.40;63.80;;;;;;6228374;22;20016;-58
2022/05/22 06:59:47;;;;;;;16.90;8.05;;;24.50;62.60;;;;;;6232665;22;20015;-58
2022/05/22 07:02:12;;;;;;;11.00;7.60;;;24.10;63.40;;;;;;6232844;22;20017;-57
2022/05/22 07:04:38;;;;;;;17.98;8.10;;;24.20;61.90;;;;;;6230953;22;20008;-57
2022/05/22 07:07:04;;;;;;;15.65;7.78;;;23.90;63.50;;;;;;6231848;22;20062;-57
2022/05/22 07:09:29;;;;;;;14.68;8.05;;;25.70;61.10;;;;;;6229216;22;20087;-57
2022/05/22 07:11:55;;;;;;;11.07;7.95;;;25.60;56.90;;;;;;6231188;22;20031;-58
2022/05/22 07:14:21;;;;;;;15.02;9.00;;;25.40;57.30;;;;;;6227569;22;20008;-58
2022/05/22 07:16:47;;;;;;;14.48;7.75;;;24.90;58.50;;;;;;6231341;22;20243;-58
2022/05/22 07:19:13;;;;;;;9.90;7.38;;;27.50;51.60;;;;;;6228266;22;20008;-58
2022/05/22 07:21:38;;;;;;;14.55;6.53;;;26.20;54.20;;;;;;6233145;22;20008;-58
2022/05/22 07:24:04;;;;;;;16.17;7.20;;;28.50;51.00;;;;;;6230104;22;20008;-59
2022/05/22 07:26:31;;;;;;;12.98;7.38;;;27.60;52.00;;;;;;6196129;22;20004;-58
2022/05/22 07:29:01;;;;;;;15.23;7.43;;;27.50;50.80;;;;;;6204839;22;20110;-58
2022/05/22 07:31:26;;;;;;;14.77;7.88;;;28.70;48.30;;;;;;6233578;22;20078;-59
2022/05/22 07:33:52;;;;;;;12.27;7.85;;;28.20;48.90;;;;;;6231327;22;20070;-60
2022/05/22 07:36:18;;;;;;;11.68;6.47;;;27.80;49.30;;;;;;6229796;23;20016;-59
2022/05/22 07:38:44;;;;;;;14.25;7.57;;;28.40;48.80;;;;;;6229833;23;20008;-59
2022/05/22 07:41:09;;;;;;;11.27;6.60;;;27.80;47.50;;;;;;6233608;22;20429;-59
2022/05/22 07:43:35;;;;;;;17.25;6.72;;;27.20;49.60;;;;;;6229174;22;20000;-59
2022/05/22 07:46:00;;;;;;;11.52;6.22;;;27.60;49.90;;;;;;6234131;22;20358;-59
2022/05/22 07:48:26;;;;;;;13.98;7.53;;;28.30;48.90;;;;;;6229858;22;20011;-59
2022/05/22 07:50:55;;;;;;;13.85;6.78;;;28.40;46.00;;;;;;6232340;22;20305;-59
2022/05/22 07:53:39;;;;;;;15.98;6.95;;;28.50;47.90;;;;;;6229985;22;20008;-59
2022/05/22 07:56:04;;;;;;;12.20;7.47;;;27.20;48.30;;;;;;6233483;22;20019;-59
2022/05/22 07:58:30;;;;;;;13.85;7.43;;;27.90;49.50;;;;;;6230229;22;20004;-59
2022/05/22 08:00:56;;;;;;;13.90;7.28;;;26.50;52.60;;;;;;6230733;22;20072;-60
2022/05/22 08:03:22;;;;;;;10.93;7.40;;;26.80;50.40;;;;;;6230111;22;20020;-60
2022/05/22 08:05:47;;;;;;;14.32;7.60;;;26.60;50.90;;;;;;6229749;22;20004;-60
2022/05/22 08:08:13;;;;;;;12.63;7.03;;;26.30;50.00;;;;;;6231839;22;20565;-60
2022/05/22 08:10:39;;;;;;;14.07;7.30;;;26.80;50.90;;;;;;6231054;22;20004;-59
2022/05/22 08:13:05;;;;;;;17.58;7.40;;;26.60;51.50;;;;;;6230921;22;20004;-60
2022/05/22 08:15:32;;;;;;;12.13;7.10;;;26.60;51.00;;;;;;6229059;23;20023;-60
2022/05/22 08:17:58;;;;;;;10.27;6.47;;;27.30;50.50;;;;;;6230652;22;20090;-60
2022/05/22 08:20:24;;;;;;;14.73;6.55;;;28.20;47.80;;;;;;6229267;23;20008;-61
2022/05/22 08:22:56;;;;;;;16.85;6.90;;;30.10;45.50;;;;;;6231619;22;20094;-60
2022/05/22 08:25:22;;;;;;;12.98;7.20;;;30.00;45.00;;;;;;6228613;23;20022;-60
2022/05/22 08:27:47;;;;;;;16.50;7.43;;;29.10;44.30;;;;;;6231866;22;20008;-60
2022/05/22 08:30:15;;;;;;;12.25;6.53;;;28.70;45.60;;;;;;6227791;22;20004;-60
2022/05/22 08:32:41;;;;;;;13.23;6.88;;;29.40;45.00;;;;;;6231012;22;20466;-60
2022/05/22 08:35:08;;;;;;;11.05;6.97;;;30.00;43.40;;;;;;6228599;22;20358;-60
2022/05/22 08:37:34;;;;;;;11.88;6.20;;;30.50;43.00;;;;;;6231576;22;20007;-60
2022/05/22 08:39:59;;;;;;;12.82;6.72;;;29.40;44.30;;;;;;6229788;22;20366;-61
2022/05/22 08:42:31;;;;;;;12.88;6.22;;;27.80;43.70;;;;;;6230507;22;20094;-60
2022/05/22 08:44:56;;;;;;;12.38;6.28;;;27.20;46.30;;;;;;6226989;23;20449;-60
2022/05/22 08:47:31;;;;;;;14.35;6.53;;;27.30;46.20;;;;;;6231463;22;20012;-60
2022/05/22 08:50:02;;;;;;;14.38;6.57;;;27.20;47.20;;;;;;6228659;23;20114;-60
2022/05/22 08:52:49;;;;;;;16.45;6.40;;;27.60;48.90;;;;;;6228724;23;20000;-61
2022/05/22 08:55:20;;;;;;;11.65;5.75;;;28.90;46.30;;;;;;6229775;23;20004;-60
2022/05/22 09:00:37;;;;;;;10.07;7.13;;;29.90;43.40;;;;;;6228400;22;20011;-59
2022/05/22 09:03:20;;;;;;;14.63;6.95;;;28.10;47.40;;;;;;6232110;22;20016;-59
2022/05/22 09:05:46;;;;;;;15.73;5.97;;;27.60;46.60;;;;;;6230595;22;20087;-60
2022/05/22 09:08:24;;;;;;;11.68;6.22;;;28.90;47.40;;;;;;6230677;23;20061;-60
2022/05/22 09:11:04;;;;;;;12.68;5.80;;;28.90;46.00;;;;;;6229683;23;20164;-60
2022/05/22 09:13:51;;;;;;;12.38;5.28;;;28.80;46.60;;;;;;6231592;23;20004;-60
2022/05/22 09:16:28;;;;;;;11.60;5.70;;;27.40;48.70;;;;;;6229779;22;20016;-61
2022/05/22 09:19:11;;;;;;;12.50;6.40;;;27.80;47.30;;;;;;6231741;23;20038;-60
2022/05/22 09:22:00;;;;;;;11.00;6.63;;;27.30;49.50;;;;;;6230709;22;20026;-61
2022/05/22 09:24:35;;;;;;;20.02;7.10;;;27.70;48.20;;;;;;6229677;23;20004;-60
2022/05/22 09:27:07;;;;;;;11.25;6.35;;;29.40;43.70;;;;;;6194715;22;20607;-60
2022/05/22 09:29:54;;;;;;;11.23;6.70;;;28.50;43.60;;;;;;6228330;23;20031;-60
2022/05/22 09:32:55;;;;;;;14.77;7.35;;;27.10;47.60;;;;;;6234494;23;20382;-60
2022/05/22 09:35:49;;;;;;;11.43;6.07;;;27.20;47.50;;;;;;6229973;23;20043;-60
2022/05/22 09:38:14;;;;;;;15.50;8.00;;;28.00;46.10;;;;;;6228725;23;20005;-60
2022/05/22 09:40:48;;;;;;;14.70;6.50;;;27.00;48.00;;;;;;6232904;22;20004;-61
2022/05/22 09:43:27;;;;;;;14.50;5.72;;;27.20;49.90;;;;;;6233774;22;20011;-60
2022/05/22 09:46:30;;;;;;;15.90;7.75;;;27.80;48.00;;;;;;6229923;23;20054;-61
2022/05/22 09:49:10;;;;;;;16.60;5.95;;;28.20;45.20;;;;;;6229575;22;20004;-60
2022/05/22 09:51:38;;;;;;;13.63;7.82;;;28.00;47.40;;;;;;6230140;23;20133;-60
2022/05/22 09:54:25;;;;;;;12.60;6.25;;;27.70;46.50;;;;;;6233554;22;20446;-60
2022/05/22 09:57:06;;;;;;;16.30;7.18;;;26.60;52.10;;;;;;6229888;23;20011;-59
2022/05/22 10:00:11;;;;;;;12.70;6.35;;;27.80;47.10;;;;;;6229859;22;20019;-60
2022/05/22 10:02:52;;;;;;;13.02;6.88;;;28.60;47.50;;;;;;6214589;22;20043;-59
2022/05/22 10:05:33;;;;;;;14.05;6.20;;;29.00;44.10;;;;;;6230087;23;20005;-60
2022/05/22 10:08:06;;;;;;;10.98;5.75;;;27.50;48.00;;;;;;6233385;23;20632;-59
2022/05/22 10:10:40;;;;;;;13.25;6.68;;;28.10;45.20;;;;;;6230546;23;20008;-59
2022/05/22 10:13:35;;;;;;;12.88;7.30;;;27.60;44.60;;;;;;6230089;22;20004;-60
2022/05/22 10:16:38;;;;;;;14.20;6.28;;;26.10;46.60;;;;;;6230485;23;20063;-59
2022/05/22 10:19:38;;;;;;;12.65;7.35;;;26.40;46.60;;;;;;6231940;23;20053;-60
2022/05/22 10:22:40;;;;;;;17.63;6.35;;;27.70;47.30;;;;;;6233901;22;20429;-60
2022/05/22 10:25:08;;;;;;;11.30;6.07;;;25.90;48.80;;;;;;6195512;22;20004;-60
2022/05/22 10:27:40;;;;;;;8.85;6.90;;;26.20;50.60;;;;;;6232567;22;20004;-59
2022/05/22 10:30:26;;;;;;;14.23;6.50;;;26.50;50.70;;;;;;6225564;23;20398;-60
2022/05/22 10:33:00;;;;;;;12.68;6.40;;;26.70;48.40;;;;;;6229589;23;20012;-60
2022/05/22 10:35:27;;;;;;;14.73;6.35;;;27.60;47.40;;;;;;6224709;23;20487;-60
2022/05/22 10:37:58;;;;;;;13.88;5.80;;;28.60;44.90;;;;;;6233649;22;20008;-61
2022/05/22 10:40:24;;;;;;;10.90;4.15;;;28.10;47.10;;;;;;6229088;22;20011;-60
2022/05/22 10:42:54;;;;;;;8.07;4.53;;;28.00;44.70;;;;;;6232188;22;20200;-60
2022/05/22 10:45:34;;;;;;;9.52;4.50;;;28.10;43.50;;;;;;6229836;22;20027;-60
2022/05/22 10:48:19;;;;;;;8.52;3.90;;;28.30;44.60;;;;;;6231725;23;20260;-61
2022/05/22 10:50:51;;;;;;;8.32;4.75;;;29.70;41.90;;;;;;6232482;22;20075;-60
2022/05/22 10:53:35;;;;;;;10.77;4.30;;;29.40;41.60;;;;;;6234396;22;20035;-61
2022/05/22 10:56:14;;;;;;;12.55;4.82;;;28.30;44.20;;;;;;6231896;22;20011;-61
2022/05/22 10:59:00;;;;;;;8.98;5.07;;;28.40;43.70;;;;;;6230584;22;20397;-59
2022/05/22 11:01:27;;;;;;;9.02;5.40;;;29.60;41.90;;;;;;6234300;22;20000;-60
2022/05/22 11:04:07;;;;;;;10.35;5.90;;;29.80;41.50;;;;;;6230258;22;20334;-60
2022/05/22 11:06:34;;;;;;;9.98;4.60;;;29.20;42.20;;;;;;6231469;22;20000;-60
2022/05/22 11:09:00;;;;;;;12.43;5.70;;;28.30;44.10;;;;;;6234284;22;20042;-60
2022/05/22 11:11:28;;;;;;;10.27;5.00;;;28.30;43.20;;;;;;6232814;22;20307;-61
2022/05/22 11:14:05;;;;;;;13.20;6.13;;;28.30;44.00;;;;;;6234442;22;20015;-60
2022/05/22 11:16:30;;;;;;;8.75;5.10;;;29.20;41.00;;;;;;6231356;22;20038;-60
2022/05/22 11:19:16;;;;;;;14.50;5.35;;;29.00;42.20;;;;;;6233639;22;20242;-60
2022/05/22 11:22:05;;;;;;;8.90;5.68;;;30.40;40.20;;;;;;6232824;23;20452;-60
2022/05/22 11:24:53;;;;;;;7.55;4.13;;;28.60;41.00;;;;;;6229016;23;20417;-60
2022/05/22 11:27:39;;;;;;;9.45;5.22;;;29.10;42.00;;;;;;6233233;23;20004;-59
2022/05/22 11:30:27;;;;;;;9.80;5.50;;;28.50;42.50;;;;;;6228816;23;20633;-61
2022/05/22 11:32:58;;;;;;;12.38;6.30;;;28.00;41.90;;;;;;6231714;22;20007;-60
2022/05/22 11:35:34;;;;;;;9.98;5.88;;;28.70;43.50;;;;;;6229931;22;20004;-60
2022/05/22 11:38:25;;;;;;;9.13;4.53;;;27.40;45.20;;;;;;6232305;22;20004;-60
2022/05/22 11:41:01;;;;;;;9.77;5.57;;;28.70;43.00;;;;;;6228110;23;20032;-60
2022/05/22 11:43:59;;;;;;;8.30;5.28;;;28.50;43.80;;;;;;6230757;23;20201;-60
2022/05/22 11:50:01;;;;;;;7.75;4.13;;;28.20;49.00;;;;;;5057561;28;20439;-67
2022/05/22 11:52:56;;;;;;;10.00;4.35;;;27.80;48.60;;;;;;5057308;28;20403;-68
2022/05/22 11:55:53;;;;;;;8.88;4.05;;;27.30;49.80;;;;;;5062703;28;20477;-68
2022/05/22 11:58:26;;;;;;;8.32;3.50;;;27.00;50.30;;;;;;5054687;28;20517;-68
2022/05/22 12:01:15;;;;;;;10.32;3.67;;;26.70;51.40;;;;;;5041257;28;20029;-67
2022/05/22 12:04:01;;;;;;;8.25;3.58;;;26.50;52.00;;;;;;5034740;28;20474;-69
2022/05/22 12:06:48;;;;;;;13.20;4.40;;;26.40;53.80;;;;;;5033657;28;20049;-72
2022/05/22 12:09:23;;;;;;;8.88;3.97;;;26.30;54.20;;;;;;4965527;28;20057;-72
2022/05/22 12:12:22;;;;;;;10.88;3.33;;;26.30;55.30;;;;;;4982946;28;20114;-73
2022/05/22 12:15:29;;;;;;;7.97;3.53;;;26.30;55.30;;;;;;4991861;28;20022;-72
2022/05/22 12:18:03;;;;;;;13.75;5.80;;;26.20;56.90;;;;;;4994895;28;20049;-74
2022/05/22 12:20:36;;;;;;;9.02;5.80;;;26.20;57.90;;;;;;4990805;28;20037;-72
2022/05/22 12:23:13;;;;;;;9.50;5.80;;;26.00;55.40;;;;;;4994711;28;20034;-73
2022/05/22 12:25:52;;;;;;;11.10;5.35;;;26.10;56.00;;;;;;4988916;28;20655;-72
2022/05/22 12:28:47;;;;;;;8.95;4.45;;;26.00;55.10;;;;;;4993500;28;20049;-73
2022/05/22 12:31:21;;;;;;;11.47;4.60;;;26.10;55.60;;;;;;4991828;28;20026;-73
2022/05/22 12:33:46;;;;;;;9.50;4.20;;;26.10;56.20;;;;;;4990510;28;20046;-73
2022/05/22 12:36:12;;;;;;;8.73;3.42;;;26.10;56.20;;;;;;4989101;28;20277;-72
2022/05/22 12:38:51;;;;;;;7.35;3.80;;;26.10;56.50;;;;;;4988466;28;20236;-72
2022/05/22 12:42:04;;;;;;;17.48;3.92;;;26.10;56.30;;;;;;5000776;28;20321;-72
2022/05/22 12:44:30;;;;;;;8.18;3.92;;;26.00;55.70;;;;;;4987576;28;20042;-71
2022/05/22 12:46:57;;;;;;;9.77;3.60;;;26.00;55.90;;;;;;4977609;28;20057;-72
2022/05/22 12:49:25;;;;;;;8.10;3.75;;;26.00;55.60;;;;;;4990107;28;20421;-72
2022/05/22 12:52:15;;;;;;;5.75;3.50;;;26.00;55.40;;;;;;4984719;28;20065;-72
2022/05/22 12:54:41;;;;;;;7.53;3.75;;;26.00;54.60;;;;;;4999037;28;20065;-72
2022/05/22 12:57:10;;;;;;;6.88;3.58;;;25.90;53.40;;;;;;4973188;28;20046;-72
2022/05/22 12:59:35;;;;;;;8.60;3.40;;;25.90;53.40;;;;;;4971265;28;20042;-70
2022/05/22 13:02:02;;;;;;;7.30;3.25;;;26.00;53.30;;;;;;4955824;28;20507;-71
2022/05/22 13:04:39;;;;;;;9.32;3.55;;;25.90;52.60;;;;;;4966404;28;20136;-70
2022/05/22 13:07:11;;;;;;;6.70;3.13;;;25.90;52.80;;;;;;4986754;28;20448;-71
2022/05/22 13:09:45;;;;;;;12.23;3.90;;;25.90;53.30;;;;;;4970897;28;20121;-70
2022/05/22 13:12:15;;;;;;;10.07;3.93;;;25.90;52.80;;;;;;4989967;28;20437;-67